Weather Data

Pearl Creek Farm: 8878 N Farm Road 75, Walnut Grove MO 65770

<== Previous Day (Tuesday 31 Dec 2013) | Next Day (Thursday 02 Jan 2014) ==>

Summary Precipitation Data For Wednesday 01 January 2014

ElementValueUnits
Precipitation0"
Notes(none)
SourcePearl Creek Farm

Summary Temperature Data For Wednesday 01 January 2014

ElementValueUnits
High Temperature50 oF
Low Temperature21 oF
Average Temperature36 oF
High Humidity84 %
Low Humidity53 %
Average Humidity69 %
SourcePearl Creek Farm

Detail Temperature Data For Wednesday 01 January 2014

Date / TimeTemp (F)RH (%)Dew Pt (F)Report Date / TimeSource
2014-01-01 00:00:00 34 66 23.7 2014-02-09 14:43:36 Pearl Creek Farm
2014-01-01 00:30:00 33 68 23.5 2014-02-09 14:43:36 Pearl Creek Farm
2014-01-01 01:00:00 33 69 24.0 2014-02-09 14:43:36 Pearl Creek Farm
2014-01-01 01:30:00 34 69 24.9 2014-02-09 14:43:36 Pearl Creek Farm
2014-01-01 02:00:00 34 69 24.8 2014-02-09 14:43:36 Pearl Creek Farm
2014-01-01 02:30:00 33 70 24.3 2014-02-09 14:43:36 Pearl Creek Farm
2014-01-01 03:00:00 32 71 23.5 2014-02-09 14:43:36 Pearl Creek Farm
2014-01-01 03:30:00 32 71 23.7 2014-02-09 14:43:36 Pearl Creek Farm
2014-01-01 04:00:00 31 73 23.4 2014-02-09 14:43:36 Pearl Creek Farm
2014-01-01 04:30:00 31 74 23.6 2014-02-09 14:43:36 Pearl Creek Farm
2014-01-01 05:00:00 31 74 23.7 2014-02-09 14:43:36 Pearl Creek Farm
2014-01-01 05:30:00 31 76 24.2 2014-02-09 14:43:36 Pearl Creek Farm
2014-01-01 06:00:00 31 76 24.2 2014-02-09 14:43:36 Pearl Creek Farm
2014-01-01 06:30:00 31 76 24.3 2014-02-09 14:43:36 Pearl Creek Farm
2014-01-01 07:00:00 30 78 23.8 2014-02-09 14:43:36 Pearl Creek Farm
2014-01-01 07:30:00 30 79 24.2 2014-02-09 14:43:36 Pearl Creek Farm
2014-01-01 08:00:00 31 79 25.1 2014-02-09 14:43:36 Pearl Creek Farm
2014-01-01 08:30:00 32 79 26.1 2014-02-09 14:43:36 Pearl Creek Farm
2014-01-01 09:00:00 37 74 29.5 2014-02-09 14:43:36 Pearl Creek Farm
2014-01-01 09:30:00 39 70 30.1 2014-02-09 14:43:36 Pearl Creek Farm
2014-01-01 10:00:00 41 69 31.5 2014-02-09 14:43:36 Pearl Creek Farm
2014-01-01 10:30:00 43 65 31.9 2014-02-09 14:43:36 Pearl Creek Farm
2014-01-01 11:00:00 44 64 32.4 2014-02-09 14:43:36 Pearl Creek Farm
2014-01-01 11:30:00 45 62 32.6 2014-02-09 14:43:36 Pearl Creek Farm
2014-01-01 12:00:00 49 58 34.7 2014-02-09 14:43:36 Pearl Creek Farm
2014-01-01 12:30:00 50 53 33.3 2014-02-09 14:43:36 Pearl Creek Farm
2014-01-01 13:00:00 49 56 33.8 2014-02-09 14:43:36 Pearl Creek Farm
2014-01-01 13:30:00 49 56 34.0 2014-02-09 14:43:36 Pearl Creek Farm
2014-01-01 14:00:00 49 55 33.6 2014-02-09 14:43:36 Pearl Creek Farm
2014-01-01 14:30:00 49 55 33.6 2014-02-09 14:43:36 Pearl Creek Farm
2014-01-01 15:00:00 48 55 32.6 2014-02-09 14:43:36 Pearl Creek Farm
2014-01-01 15:30:00 48 57 33.3 2014-02-09 14:43:36 Pearl Creek Farm
2014-01-01 16:00:00 48 58 34.0 2014-02-09 14:43:36 Pearl Creek Farm
2014-01-01 16:30:00 47 59 33.2 2014-02-09 14:43:36 Pearl Creek Farm
2014-01-01 17:00:00 45 61 32.2 2014-02-09 14:43:36 Pearl Creek Farm
2014-01-01 17:30:00 44 62 31.8 2014-02-09 14:43:36 Pearl Creek Farm
2014-01-01 18:00:00 43 63 31.3 2014-02-09 14:43:36 Pearl Creek Farm
2014-01-01 18:30:00 37 67 27.1 2014-02-09 14:43:36 Pearl Creek Farm
2014-01-01 19:00:00 33 72 24.8 2014-02-09 14:43:36 Pearl Creek Farm
2014-01-01 19:30:00 31 74 23.6 2014-02-09 14:43:36 Pearl Creek Farm
2014-01-01 20:00:00 29 75 22.1 2014-02-09 14:43:36 Pearl Creek Farm
2014-01-01 20:30:00 28 76 21.4 2014-02-09 14:43:36 Pearl Creek Farm
2014-01-01 21:00:00 27 77 20.8 2014-02-09 14:43:36 Pearl Creek Farm
2014-01-01 21:30:00 26 79 20.3 2014-02-09 14:43:36 Pearl Creek Farm
2014-01-01 22:00:00 25 82 20.2 2014-02-09 14:43:36 Pearl Creek Farm
2014-01-01 22:30:00 24 82 19.3 2014-02-09 14:43:36 Pearl Creek Farm
2014-01-01 23:00:00 23 83 18.5 2014-02-09 14:43:36 Pearl Creek Farm
2014-01-01 23:30:00 21 84 16.8 2014-02-09 14:43:36 Pearl Creek Farm

A total of 48 rows are displayed.